West Louisville, Kentucky
Current Conditions -  °F | °C
As of 9:56 PM on Sunday 23 Nov 2014 (Local Time) from KOWB Reporting Station
Overcast Overcast  
Wind Chill: 60°   Ceiling: 1500
Heat Index: 60°   Visibility: 10mi
Dew Point: 58°   Wind: 15mph
Humidity: 93%   Direction: 230°SW
Pressure: 29.33"   Gusts: 23mph
Location:  37.7°N, 87.29°W
Report Text: KOWB 240356Z 23013G20KT 10SM OVC015 16/14 A2933 RMK AO2 T01550144 RAE50 P0001 SLP932
Loading
Personal Weather Stations






























Interactive Weather Map New forecast layout! Learn more

10-Day Weather Forecast

Advertisements
Track Severe Weather on mobile